Palau, PW

79°F / 26°C
Scattered Clouds
Humidity: 89%
Dew Point: 75°F / 24°C
Wind: North at 7 mph / 11 km/h
Pressure: 29.83 in / 1010 hPa (Steady)
Visibility: 10.0 miles / 16.1 kilometers
Clouds: Scattered Clouds (SCT) : 1200 ft / 365 m
Scattered Clouds (SCT) : 1700 ft / 518 m
Yesterday's Maximum: 81°F / 27°C
Yesterday's Minimum: 79°F / 26°C approx.
Yesterday's Cooling Degree Days: 15 approx.
UV: 0 out of 16
Sunrise:5:48 AM +09
Sunset:5:44 PM +09
Moon Rise:2:45 PM +09
Moon Set:2:07 AM +09
Moon Phase Waxing Gibbous
Marine Forecast & Tides
NOAA Weather Radio
No local feed.
METAR PGUA 191456Z 36006KT 10SM SCT012 SCT017 26/24 A2985 RMK AO2A SLP099 T02590239 57009 $
As of: 12:56 AM ChST on October 20, 2018
Observed at: Andersen AFB, GU

View Station's History

Current Radar


Region Default Local
No Yes
No Yes

View Full Screen WunderMap

Forecast

Today
tstorms
85° | 77°F
29° | 25°C
Sunday
tstorms
84° | 77°F
29° | 25°C
Monday
chancetstorms
84° | 77°F
29° | 25°C
Today is forecast to be
nearly the same temperature as yesterday.
No Yes

Scientific Forecaster Discussion

Warnings & Notices

There are no active warnings for this location at this time.

View Palau Advisories

Features

Weather Apps

WunderRadio

Weather Underground Apps
Check out our wide variety of mobile and setup applications.

Weather Underground Applications

Top of Page

© Copyright 2018
The Weather Company, LLC